createdAt,value
2019-02-28T00:09:20.127Z,62.53
2019-02-28T00:19:25.825Z,66.17
2019-02-28T00:29:33.722Z,66.30
2019-02-28T00:39:39.486Z,71.03
2019-02-28T00:49:45.110Z,64.77
2019-02-28T00:59:50.440Z,64.60
2019-02-28T01:09:55.908Z,61.90
2019-02-28T01:20:01.520Z,62.13
2019-02-28T01:30:07.835Z,61.50
2019-02-28T01:40:17.292Z,55.43
2019-02-28T01:50:23.218Z,55.60
2019-02-28T02:00:28.696Z,58.20
2019-02-28T02:10:34.074Z,53.50
2019-02-28T02:20:39.406Z,53.40
2019-02-28T02:30:50.537Z,57.00
2019-02-28T02:40:58.973Z,52.20
2019-02-28T02:50:58.691Z,51.17
2019-02-28T03:01:04.056Z,51.30
2019-02-28T03:11:09.583Z,46.47
2019-02-28T03:21:15.517Z,46.53
2019-02-28T03:31:21.856Z,50.77
2019-02-28T03:41:27.196Z,44.23
2019-02-28T03:51:32.569Z,39.53
2019-02-28T04:01:44.562Z,43.43
2019-02-28T04:11:44.850Z,38.83
2019-02-28T04:21:50.596Z,44.33
2019-02-28T04:31:57.959Z,38.03
2019-02-28T04:42:04.950Z,40.53
2019-02-28T04:52:11.815Z,35.83
2019-02-28T05:02:19.709Z,38.63
2019-02-28T05:12:24.039Z,46.37
2019-02-28T05:22:29.414Z,35.33
2019-02-28T05:32:35.637Z,35.83
2019-02-28T05:42:41.995Z,34.87
2019-02-28T05:52:47.726Z,38.13
2019-02-28T06:02:57.658Z,34.63
2019-02-28T06:13:00.325Z,34.70
2019-02-28T06:23:06.366Z,34.87
2019-02-28T06:33:12.965Z,32.30
2019-02-28T06:43:18.811Z,31.53
2019-02-28T06:53:24.967Z,32.57
2019-02-28T07:03:31.278Z,33.97
2019-02-28T07:13:39.810Z,35.03
2019-02-28T07:23:44.423Z,34.57
2019-02-28T07:33:51.355Z,33.37
2019-02-28T07:43:59.003Z,31.63
2019-02-28T07:54:05.644Z,29.27
2019-02-28T08:04:11.220Z,29.10
2019-02-28T08:14:16.753Z,34.97
2019-02-28T08:24:22.255Z,36.00
2019-02-28T08:34:27.730Z,36.47
2019-02-28T08:44:33.382Z,32.37
2019-02-28T08:54:38.844Z,34.17
2019-02-28T09:04:44.951Z,32.17
2019-02-28T09:14:51.952Z,34.07
2019-02-28T09:24:59.380Z,37.20
2019-02-28T09:35:06.148Z,32.80
2019-02-28T09:45:15.062Z,33.37
2019-02-28T09:55:20.844Z,35.90
2019-02-28T10:05:26.582Z,37.73
2019-02-28T10:15:32.161Z,35.90
2019-02-28T10:25:43.317Z,34.40
2019-02-28T10:35:45.387Z,40.30
2019-02-28T10:45:51.058Z,39.97
2019-02-28T10:55:58.007Z,46.17
2019-02-28T11:06:04.073Z,42.43
2019-02-28T11:16:11.262Z,41.47
2019-02-28T11:26:17.087Z,39.97
2019-02-28T11:36:22.667Z,39.43
2019-02-28T11:46:28.333Z,35.40
2019-02-28T11:56:33.733Z,39.43
2019-02-28T12:06:40.281Z,39.13
2019-02-28T12:16:45.691Z,40.70
2019-02-28T12:26:52.791Z,35.00
2019-02-28T12:36:59.862Z,38.10
2019-02-28T12:47:06.487Z,37.77
2019-02-28T12:57:12.687Z,40.27
2019-02-28T13:07:18.286Z,42.90
2019-02-28T13:17:23.845Z,47.93
2019-02-28T13:27:29.330Z,44.43
2019-02-28T13:37:37.449Z,38.77
2019-02-28T13:47:45.553Z,46.47
2019-02-28T13:57:49.225Z,45.37
2019-02-28T14:07:54.540Z,46.50
2019-02-28T14:18:00.102Z,49.97
2019-02-28T14:28:05.570Z,53.30
2019-02-28T14:38:11.048Z,48.83
2019-02-28T14:48:17.626Z,46.97
2019-02-28T14:58:23.299Z,42.90
2019-02-28T15:08:28.754Z,45.63
2019-02-28T15:18:34.125Z,36.07
2019-02-28T15:28:39.686Z,36.37
2019-02-28T15:38:45.428Z,44.03
2019-02-28T15:48:50.968Z,48.17
2019-02-28T15:58:56.450Z,46.60
2019-02-28T16:09:01.907Z,43.73
2019-02-28T16:19:08.913Z,45.30
2019-02-28T16:29:14.862Z,43.43
2019-02-28T16:39:21.824Z,43.40
2019-02-28T16:49:27.423Z,48.20
2019-02-28T16:59:32.715Z,56.17
2019-02-28T17:09:44.530Z,46.07
2019-02-28T17:19:50.567Z,47.17
2019-02-28T17:30:15.930Z,49.03
2019-02-28T17:40:23.192Z,55.47
2019-02-28T17:50:53.420Z,51.40
2019-02-28T18:01:44.442Z,51.37
2019-02-28T18:12:54.860Z,51.23
2019-02-28T18:23:13.068Z,50.87
2019-02-28T18:33:19.525Z,51.13
2019-02-28T18:43:27.134Z,54.03
2019-02-28T18:53:32.115Z,53.87
2019-02-28T19:03:37.941Z,46.43
2019-02-28T19:13:44.236Z,52.97
2019-02-28T19:23:49.799Z,48.07
2019-02-28T19:33:55.517Z,43.80
2019-02-28T19:44:02.207Z,13.40
2019-02-28T19:54:08.247Z,2.87
2019-02-28T20:04:15.531Z,4.00
2019-02-28T20:14:20.899Z,3.23
2019-02-28T20:24:26.492Z,7.20
2019-02-28T20:34:31.907Z,6.63
2019-02-28T20:44:37.493Z,3.73
2019-02-28T20:54:42.904Z,6.60
2019-02-28T21:04:48.203Z,7.43
2019-02-28T21:14:53.971Z,6.20
2019-02-28T21:25:00.515Z,7.03
2019-02-28T21:35:06.293Z,6.47
2019-02-28T21:45:16.382Z,4.70
2019-02-28T21:55:21.858Z,9.53
2019-02-28T22:05:28.012Z,9.43
2019-02-28T22:15:33.414Z,13.13
2019-02-28T22:25:38.891Z,21.93
2019-02-28T22:35:47.606Z,41.67
2019-02-28T22:45:53.424Z,38.10
2019-02-28T22:55:58.726Z,43.33
2019-02-28T23:06:04.274Z,51.37
2019-02-28T23:16:09.652Z,47.83
2019-02-28T23:26:15.790Z,51.63
2019-02-28T23:36:21.444Z,56.33
2019-02-28T23:46:26.816Z,53.63
2019-02-28T23:56:32.612Z,55.10
